Dassault Systemes SA Return on Investment 2010-2023 | DASTY

Current and historical return on investment (ROI) values for Dassault Systemes SA (DASTY) over the last 10 years.
Dassault Systemes SA ROI - Return on Investment Historical Data
Date TTM Net Income LT Investments & Debt Return on Investment
2023-09-30 $0.92B $10.68B 8.43%
2023-03-31 $1.33B $10.97B 12.39%
2022-09-30 $1.29B $10.64B 12.14%
2022-03-31 $1.30B $10.46B 12.08%
2021-12-31 $1.21B $10.86B 10.83%
2021-09-30 $1.17B $10.53B 10.57%
2021-06-30 $1.04B $11.34B 9.18%
2021-03-31 $0.88B $11.82B 7.82%
2020-12-31 $0.77B $10.60B 6.94%
2020-09-30 $0.68B $11.44B 6.12%
2020-06-30 $0.75B $10.97B 6.98%
2020-03-31 $0.83B $11.12B 8.72%
2019-12-31 $0.91B $11.04B 10.91%
2019-09-30 $1.00B $9.87B 13.95%
2019-06-30 $0.99B $6.19B 16.06%
2019-03-31 $0.99B $6.29B 16.05%
2018-12-31 $0.91B $6.23B 14.69%
2018-09-30 $0.90B $5.84B 14.87%
2018-06-30 $0.88B $6.41B 14.70%
2018-03-31 $0.86B $6.24B 14.95%
2017-12-31 $0.82B $5.65B 15.05%
2017-09-30 $0.75B $5.71B 13.83%
2017-06-30 $0.74B $5.27B 14.02%
2017-03-31 $0.74B $5.24B 14.05%
2016-12-31 $0.74B $5.40B 14.41%
2016-09-30 $0.67B $5.20B 13.31%
2016-06-30 $0.66B $5.11B 13.82%
2016-03-31 $0.65B $4.94B 14.54%
2015-12-31 $0.70B $4.98B 16.50%
2015-09-30 $0.62B $4.05B 15.09%
2015-06-30 $0.56B $3.94B 13.42%
2015-03-31 $0.52B $4.07B 12.40%
2014-12-31 $0.45B $4.40B 10.68%
2014-09-30 $0.58B $4.22B 14.05%
2014-06-30 $0.65B $4.12B 16.16%
2014-03-31 $0.68B $4.12B 17.18%
2013-12-31 $0.69B $3.96B 18.43%
2013-09-30 $0.71B $3.91B 19.96%
2013-06-30 $0.69B $3.78B 21.08%
2013-03-31 $0.66B $3.34B 21.38%
2012-12-31 $0.67B $3.11B 22.42%
2012-09-30 $0.60B $2.92B 20.42%
2012-06-30 $0.58B $2.91B 19.39%
2012-03-31 $0.59B $2.95B 19.63%
2011-12-31 $0.58B $3.00B 19.25%
2011-09-30 $0.57B $3.11B 19.57%
2011-06-30 $0.53B $2.96B 19.05%
2011-03-31 $0.49B $2.88B 18.50%
2010-12-31 $0.42B $2.77B 16.44%
2010-09-30 $0.38B $2.48B 15.66%
2010-06-30 $0.38B $2.52B 16.06%
2010-03-31 $0.35B $2.43B 15.63%
2009-12-31 $0.36B $2.30B 16.56%
Sector Industry Market Cap Revenue
Computer and Technology Computer Software $55.545B $6.441B
Dassault Systemes is a worldwide recognized leader in CAD/CAM/CAE and PDM II markets. The company's mission to provide solutions to enable customersto build their digital enterprise, by defining, simulating, managing and optimizing concurrently product, manufacturing process, and resources. In this virtual space, customers create innovative, high quality, safe and affordable products. The company delivers scaleable process and design-centric solutions on both Unix and Windows NT environments.
Stock Name Country Market Cap PE Ratio
Microsoft (MSFT) United States $3134.901B 38.15
Oracle (ORCL) United States $332.871B 27.09
Salesforce (CRM) United States $285.490B 47.62
Adobe (ADBE) United States $212.392B 35.51
Intuit (INTU) United States $173.911B 58.32
Synopsys (SNPS) United States $84.967B 61.29
Cadence Design Systems (CDNS) United States $83.264B 75.89
Autodesk (ADSK) United States $50.690B 49.89
ANSYS (ANSS) United States $29.176B 49.22
MicroStrategy (MSTR) United States $25.106B 50.02
PTC (PTC) United States $21.527B 63.40
SS&C Technologies Holdings (SSNC) United States $15.324B 15.09
Manhattan Associates (MANH) United States $14.641B 84.33
Open Text (OTEX) Canada $9.681B 10.39
Descartes Systems Group (DSGX) Canada $7.550B 66.20
Trend Micro (TMICY) Japan $7.360B 65.30
Pegasystems (PEGA) United States $5.067B 69.41
CommVault Systems (CVLT) United States $4.224B 75.38
Blackbaud (BLKB) United States $4.103B 36.71
ACI Worldwide (ACIW) United States $3.405B 17.49
Progress Software (PRGS) United States $2.237B 14.01
Verint Systems (VRNT) United States $1.906B 17.59
BlackBerry (BB) Canada $1.797B 0.00
Sapiens (SPNS) Israel $1.693B 23.99
PROS Holdings (PRO) United States $1.679B 0.00
Simulations Plus (SLP) United States $0.930B 68.41
Magic Software Enterprises (MGIC) Israel $0.576B 11.86
Rand Worldwide (RWWI) United States $0.573B 0.00
American Software (AMSWA) United States $0.374B 31.25
Canaan (CAN) China $0.280B 0.00
OptimizeRx (OPRX) United States $0.195B 0.00
Rigetti Computing (RGTI) United States $0.187B 0.00
Icad Inc (ICAD) United States $0.045B 0.00
NetSol Technologies (NTWK) United States $0.031B 0.00
Hanryu Holdings (HRYU) South Korea $0.026B 0.00
Neonode (NEON) Sweden $0.023B 0.00
Smith Micro Software (SMSI) United States $0.021B 0.00
Wetouch Technology (WETH) $0.020B 0.00
GSE Systems (GVP) United States $0.010B 0.00
SAP SE (SAP) Germany $0.000B 47.70